Wetterdaten für den Flughafen Lübeck Blankensee


ADDS - METARS form results Aviation Digital Data Service (ADDS) Output produced by METARs form (1727 UTC 21 April 2018)
found at http://aviationweather.gov/adds/metars/
 
EDDH 211720Z 29011KT CAVOK 16/05 Q1020 NOSIG
TAF EDDH 211700Z 2118/2224 30008KT CAVOK BECMG 2118/2120 VRB03KT BECMG 2200/2203 4000 BR TEMPO 2203/2205 2000 BCFG BECMG 2205/2208 12007KT 9999 PROB30 TEMPO 2218/2224 23015G25KT TSRA BKN040CB BECMG 2221/2224 21006KT

Nord: Hamburg, Lübeck
Ost: Schwerin, Rostock
Süd: Hannover
West: Bremen, Nordhloz

Copyright © 2016 Flugschule Hohensee